sensor_id;sensor_type;location;lat;lon;timestamp;pressure;altitude;pressure_sealevel;temperature
24740;BMP280;45234;48.148;17.128;2022-07-24T00:01:40;100230.69;;;27.40
24740;BMP280;45234;48.148;17.128;2022-07-24T00:04:08;100225.38;;;27.40
24740;BMP280;45234;48.148;17.128;2022-07-24T00:06:35;100229.75;;;27.36
24740;BMP280;45234;48.148;17.128;2022-07-24T00:09:03;100219.69;;;27.33
24740;BMP280;45234;48.148;17.128;2022-07-24T00:11:32;100215.59;;;27.27
24740;BMP280;45234;48.148;17.128;2022-07-24T00:13:59;100208.69;;;27.26
24740;BMP280;45234;48.148;17.128;2022-07-24T00:16:26;100201.47;;;27.17
24740;BMP280;45234;48.148;17.128;2022-07-24T00:18:53;100205.84;;;27.13
24740;BMP280;45234;48.148;17.128;2022-07-24T00:21:20;100201.72;;;27.07
24740;BMP280;45234;48.148;17.128;2022-07-24T00:23:47;100195.94;;;27.05
24740;BMP280;45234;48.148;17.128;2022-07-24T00:26:15;100197.28;;;26.94
24740;BMP280;45234;48.148;17.128;2022-07-24T00:28:42;100187.84;;;26.88
24740;BMP280;45234;48.148;17.128;2022-07-24T00:31:09;100188.25;;;26.82
24740;BMP280;45234;48.148;17.128;2022-07-24T00:33:37;100189.75;;;26.65
24740;BMP280;45234;48.148;17.128;2022-07-24T00:36:04;100186.41;;;26.60
24740;BMP280;45234;48.148;17.128;2022-07-24T00:38:31;100184.28;;;26.48
24740;BMP280;45234;48.148;17.128;2022-07-24T00:40:59;100181.75;;;26.43
24740;BMP280;45234;48.148;17.128;2022-07-24T00:43:26;100179.50;;;26.37
24740;BMP280;45234;48.148;17.128;2022-07-24T00:45:54;100178.78;;;26.45
24740;BMP280;45234;48.148;17.128;2022-07-24T00:48:23;100191.97;;;26.50
24740;BMP280;45234;48.148;17.128;2022-07-24T00:50:50;100183.97;;;26.50
24740;BMP280;45234;48.148;17.128;2022-07-24T00:53:18;100180.28;;;26.51
24740;BMP280;45234;48.148;17.128;2022-07-24T00:55:45;100172.28;;;26.51
24740;BMP280;45234;48.148;17.128;2022-07-24T00:58:12;100181.22;;;26.55
24740;BMP280;45234;48.148;17.128;2022-07-24T01:00:40;100182.50;;;26.57
24740;BMP280;45234;48.148;17.128;2022-07-24T01:03:07;100177.94;;;26.58
24740;BMP280;45234;48.148;17.128;2022-07-24T01:05:34;100179.03;;;26.57
24740;BMP280;45234;48.148;17.128;2022-07-24T01:08:02;100174.34;;;26.54
24740;BMP280;45234;48.148;17.128;2022-07-24T01:10:29;100166.97;;;26.51
24740;BMP280;45234;48.148;17.128;2022-07-24T01:12:57;100171.31;;;26.47
24740;BMP280;45234;48.148;17.128;2022-07-24T01:15:24;100170.47;;;26.38
24740;BMP280;45234;48.148;17.128;2022-07-24T01:17:52;100165.66;;;26.26
24740;BMP280;45234;48.148;17.128;2022-07-24T01:20:19;100166.66;;;26.16
24740;BMP280;45234;48.148;17.128;2022-07-24T01:22:46;100166.03;;;26.11
24740;BMP280;45234;48.148;17.128;2022-07-24T01:25:13;100168.47;;;26.07
24740;BMP280;45234;48.148;17.128;2022-07-24T01:27:40;100176.72;;;26.06
24740;BMP280;45234;48.148;17.128;2022-07-24T01:30:08;100181.25;;;26.05
24740;BMP280;45234;48.148;17.128;2022-07-24T01:32:35;100177.50;;;26.06
24740;BMP280;45234;48.148;17.128;2022-07-24T01:35:03;100181.84;;;26.02
24740;BMP280;45234;48.148;17.128;2022-07-24T01:37:30;100181.47;;;25.95
24740;BMP280;45234;48.148;17.128;2022-07-24T01:39:57;100180.72;;;25.81
24740;BMP280;45234;48.148;17.128;2022-07-24T01:42:24;100185.06;;;25.77
24740;BMP280;45234;48.148;17.128;2022-07-24T01:44:52;100184.66;;;25.70
24740;BMP280;45234;48.148;17.128;2022-07-24T01:47:19;100177.19;;;25.72
24740;BMP280;45234;48.148;17.128;2022-07-24T01:49:46;100176.59;;;25.75
24740;BMP280;45234;48.148;17.128;2022-07-24T01:52:13;100181.53;;;25.68
24740;BMP280;45234;48.148;17.128;2022-07-24T01:54:41;100179.66;;;25.68
24740;BMP280;45234;48.148;17.128;2022-07-24T01:57:08;100167.16;;;25.69
24740;BMP280;45234;48.148;17.128;2022-07-24T01:59:35;100173.84;;;25.66
24740;BMP280;45234;48.148;17.128;2022-07-24T02:02:03;100166.75;;;25.62
24740;BMP280;45234;48.148;17.128;2022-07-24T02:04:30;100163.63;;;25.60
24740;BMP280;45234;48.148;17.128;2022-07-24T02:06:57;100161.28;;;25.58
24740;BMP280;45234;48.148;17.128;2022-07-24T02:09:24;100164.78;;;25.54
24740;BMP280;45234;48.148;17.128;2022-07-24T02:11:52;100163.41;;;25.42
24740;BMP280;45234;48.148;17.128;2022-07-24T02:14:20;100168.03;;;25.37
24740;BMP280;45234;48.148;17.128;2022-07-24T02:16:47;100163.03;;;25.35
24740;BMP280;45234;48.148;17.128;2022-07-24T02:19:14;100157.13;;;25.38
24740;BMP280;45234;48.148;17.128;2022-07-24T02:21:41;100162.44;;;25.38
24740;BMP280;45234;48.148;17.128;2022-07-24T02:24:09;100168.53;;;25.39
24740;BMP280;45234;48.148;17.128;2022-07-24T02:26:36;100160.38;;;25.35
24740;BMP280;45234;48.148;17.128;2022-07-24T02:29:03;100163.41;;;25.29
24740;BMP280;45234;48.148;17.128;2022-07-24T02:31:31;100161.66;;;25.24
24740;BMP280;45234;48.148;17.128;2022-07-24T02:33:58;100166.97;;;25.24
24740;BMP280;45234;48.148;17.128;2022-07-24T02:36:25;100154.78;;;25.23
24740;BMP280;45234;48.148;17.128;2022-07-24T02:38:52;100164.19;;;25.16
24740;BMP280;45234;48.148;17.128;2022-07-24T02:41:19;100164.19;;;25.16
24740;BMP280;45234;48.148;17.128;2022-07-24T02:43:46;100169.47;;;25.16
24740;BMP280;45234;48.148;17.128;2022-07-24T02:46:14;100170.88;;;25.13
24740;BMP280;45234;48.148;17.128;2022-07-24T02:48:41;100168.88;;;25.05
24740;BMP280;45234;48.148;17.128;2022-07-24T02:51:08;100173.16;;;25.01
24740;BMP280;45234;48.148;17.128;2022-07-24T02:53:35;100168.44;;;24.98
24740;BMP280;45234;48.148;17.128;2022-07-24T02:56:02;100181.59;;;24.89
24740;BMP280;45234;48.148;17.128;2022-07-24T02:58:29;100177.75;;;24.82
24740;BMP280;45234;48.148;17.128;2022-07-24T03:00:57;100183.41;;;24.75
24740;BMP280;45234;48.148;17.128;2022-07-24T03:03:24;100187.50;;;24.68
24740;BMP280;45234;48.148;17.128;2022-07-24T03:05:51;100198.09;;;24.68
24740;BMP280;45234;48.148;17.128;2022-07-24T03:08:18;100200.56;;;24.64
24740;BMP280;45234;48.148;17.128;2022-07-24T03:10:45;100203.69;;;24.66
24740;BMP280;45234;48.148;17.128;2022-07-24T03:13:12;100206.13;;;24.63
24740;BMP280;45234;48.148;17.128;2022-07-24T03:15:40;100213.31;;;24.62
24740;BMP280;45234;48.148;17.128;2022-07-24T03:18:07;100207.78;;;24.59
24740;BMP280;45234;48.148;17.128;2022-07-24T03:20:47;100217.38;;;24.54
24740;BMP280;45234;48.148;17.128;2022-07-24T03:23:14;100221.31;;;24.57
24740;BMP280;45234;48.148;17.128;2022-07-24T03:25:41;100213.84;;;24.59
24740;BMP280;45234;48.148;17.128;2022-07-24T03:28:08;100213.16;;;24.53
24740;BMP280;45234;48.148;17.128;2022-07-24T03:30:36;100231.09;;;24.62
24740;BMP280;45234;48.148;17.128;2022-07-24T03:33:03;100218.81;;;24.66
24740;BMP280;45234;48.148;17.128;2022-07-24T03:35:30;100228.31;;;24.67
24740;BMP280;45234;48.148;17.128;2022-07-24T03:37:57;100229.44;;;24.66
24740;BMP280;45234;48.148;17.128;2022-07-24T03:40:24;100229.13;;;24.67
24740;BMP280;45234;48.148;17.128;2022-07-24T03:42:52;100236.78;;;24.69
24740;BMP280;45234;48.148;17.128;2022-07-24T03:45:19;100231.91;;;24.57
24740;BMP280;45234;48.148;17.128;2022-07-24T03:47:46;100231.72;;;24.53
24740;BMP280;45234;48.148;17.128;2022-07-24T03:50:13;100235.94;;;24.54
24740;BMP280;45234;48.148;17.128;2022-07-24T03:52:48;100240.16;;;24.55
24740;BMP280;45234;48.148;17.128;2022-07-24T03:55:16;100244.38;;;24.57
24740;BMP280;45234;48.148;17.128;2022-07-24T03:57:43;100254.16;;;24.61
24740;BMP280;45234;48.148;17.128;2022-07-24T04:00:10;100256.00;;;24.61
24740;BMP280;45234;48.148;17.128;2022-07-24T04:02:41;100256.84;;;24.56
24740;BMP280;45234;48.148;17.128;2022-07-24T04:05:09;100256.19;;;24.45
24740;BMP280;45234;48.148;17.128;2022-07-24T04:07:36;100269.75;;;24.44
24740;BMP280;45234;48.148;17.128;2022-07-24T04:10:05;100261.84;;;24.39
24740;BMP280;45234;48.148;17.128;2022-07-24T04:12:33;100265.78;;;24.41
24740;BMP280;45234;48.148;17.128;2022-07-24T04:15:00;100268.75;;;24.40
24740;BMP280;45234;48.148;17.128;2022-07-24T04:17:29;100271.00;;;24.46
24740;BMP280;45234;48.148;17.128;2022-07-24T04:19:56;100275.38;;;24.56
24740;BMP280;45234;48.148;17.128;2022-07-24T04:22:23;100273.19;;;24.63
24740;BMP280;45234;48.148;17.128;2022-07-24T04:24:51;100275.78;;;24.68
24740;BMP280;45234;48.148;17.128;2022-07-24T04:27:19;100287.59;;;24.76
24740;BMP280;45234;48.148;17.128;2022-07-24T04:29:46;100284.81;;;24.86
24740;BMP280;45234;48.148;17.128;2022-07-24T04:32:15;100292.31;;;24.79
24740;BMP280;45234;48.148;17.128;2022-07-24T04:34:42;100286.66;;;24.67
24740;BMP280;45234;48.148;17.128;2022-07-24T04:37:09;100287.81;;;24.61
24740;BMP280;45234;48.148;17.128;2022-07-24T04:39:36;100290.00;;;24.53
24740;BMP280;45234;48.148;17.128;2022-07-24T04:42:03;100298.25;;;24.52
24740;BMP280;45234;48.148;17.128;2022-07-24T04:44:31;100306.38;;;24.61
24740;BMP280;45234;48.148;17.128;2022-07-24T04:46:58;100305.91;;;24.53
24740;BMP280;45234;48.148;17.128;2022-07-24T04:49:25;100307.00;;;24.52
24740;BMP280;45234;48.148;17.128;2022-07-24T04:51:52;100303.53;;;24.52
24740;BMP280;45234;48.148;17.128;2022-07-24T04:54:19;100305.91;;;24.53
24740;BMP280;45234;48.148;17.128;2022-07-24T04:56:46;100308.13;;;24.46
24740;BMP280;45234;48.148;17.128;2022-07-24T04:59:14;100316.44;;;24.40
24740;BMP280;45234;48.148;17.128;2022-07-24T05:01:41;100312.53;;;24.32
24740;BMP280;45234;48.148;17.128;2022-07-24T05:04:14;100313.28;;;24.38
24740;BMP280;45234;48.148;17.128;2022-07-24T05:06:41;100309.88;;;24.32
24740;BMP280;45234;48.148;17.128;2022-07-24T05:09:08;100315.22;;;24.27
24740;BMP280;45234;48.148;17.128;2022-07-24T05:11:38;100314.84;;;24.15
24740;BMP280;45234;48.148;17.128;2022-07-24T05:14:05;100320.25;;;24.05
24740;BMP280;45234;48.148;17.128;2022-07-24T05:16:32;100327.09;;;24.06
24740;BMP280;45234;48.148;17.128;2022-07-24T05:19:00;100325.53;;;24.05
24740;BMP280;45234;48.148;17.128;2022-07-24T05:21:29;100328.13;;;24.10
24740;BMP280;45234;48.148;17.128;2022-07-24T05:23:56;100337.66;;;24.11
24740;BMP280;45234;48.148;17.128;2022-07-24T05:26:23;100338.34;;;24.22
24740;BMP280;45234;48.148;17.128;2022-07-24T05:28:50;100341.22;;;24.25
24740;BMP280;45234;48.148;17.128;2022-07-24T05:31:17;100344.78;;;24.39
24740;BMP280;45234;48.148;17.128;2022-07-24T05:33:45;100352.13;;;24.66
24740;BMP280;45234;48.148;17.128;2022-07-24T05:36:12;100354.06;;;25.03
24740;BMP280;45234;48.148;17.128;2022-07-24T05:38:39;100354.50;;;25.42
24740;BMP280;45234;48.148;17.128;2022-07-24T05:41:07;100352.75;;;25.84
24740;BMP280;45234;48.148;17.128;2022-07-24T05:43:34;100359.94;;;26.38
24740;BMP280;45234;48.148;17.128;2022-07-24T05:46:01;100356.47;;;27.01
24740;BMP280;45234;48.148;17.128;2022-07-24T05:48:29;100360.34;;;27.61
24740;BMP280;45234;48.148;17.128;2022-07-24T05:50:56;100362.75;;;28.28
24740;BMP280;45234;48.148;17.128;2022-07-24T05:53:23;100369.88;;;29.02
24740;BMP280;45234;48.148;17.128;2022-07-24T05:55:52;100368.41;;;29.38
24740;BMP280;45234;48.148;17.128;2022-07-24T05:58:20;100376.31;;;29.64
24740;BMP280;45234;48.148;17.128;2022-07-24T06:00:47;100383.63;;;30.14
24740;BMP280;45234;48.148;17.128;2022-07-24T06:03:14;100382.53;;;31.10
24740;BMP280;45234;48.148;17.128;2022-07-24T06:05:42;100381.47;;;31.96
24740;BMP280;45234;48.148;17.128;2022-07-24T06:08:09;100391.78;;;32.46
24740;BMP280;45234;48.148;17.128;2022-07-24T06:10:36;100390.66;;;32.62
24740;BMP280;45234;48.148;17.128;2022-07-24T06:13:03;100387.31;;;32.65
24740;BMP280;45234;48.148;17.128;2022-07-24T06:15:30;100387.56;;;33.35
24740;BMP280;45234;48.148;17.128;2022-07-24T06:18:03;100397.75;;;34.11
24740;BMP280;45234;48.148;17.128;2022-07-24T06:20:30;100398.25;;;34.55
24740;BMP280;45234;48.148;17.128;2022-07-24T06:22:57;100402.22;;;35.29
24740;BMP280;45234;48.148;17.128;2022-07-24T06:25:25;100403.19;;;35.44
24740;BMP280;45234;48.148;17.128;2022-07-24T06:27:51;100397.72;;;35.37
24740;BMP280;45234;48.148;17.128;2022-07-24T06:30:25;100401.63;;;34.52
24740;BMP280;45234;48.148;17.128;2022-07-24T06:32:55;100395.28;;;34.03
24740;BMP280;45234;48.148;17.128;2022-07-24T06:35:24;100399.94;;;33.71
24740;BMP280;45234;48.148;17.128;2022-07-24T06:37:52;100394.16;;;33.06
24740;BMP280;45234;48.148;17.128;2022-07-24T06:40:20;100395.38;;;32.37
24740;BMP280;45234;48.148;17.128;2022-07-24T06:42:47;100394.44;;;31.45
24740;BMP280;45234;48.148;17.128;2022-07-24T06:45:15;100392.81;;;30.54
24740;BMP280;45234;48.148;17.128;2022-07-24T06:47:43;100393.25;;;30.06
24740;BMP280;45234;48.148;17.128;2022-07-24T06:50:12;100395.78;;;29.73
24740;BMP280;45234;48.148;17.128;2022-07-24T06:52:39;100394.19;;;29.72
24740;BMP280;45234;48.148;17.128;2022-07-24T06:55:07;100403.19;;;30.06
24740;BMP280;45234;48.148;17.128;2022-07-24T06:57:34;100402.94;;;30.19
24740;BMP280;45234;48.148;17.128;2022-07-24T07:00:07;100396.63;;;30.86
24740;BMP280;45234;48.148;17.128;2022-07-24T07:02:35;100402.44;;;31.33
24740;BMP280;45234;48.148;17.128;2022-07-24T07:05:06;100406.88;;;31.05
24740;BMP280;45234;48.148;17.128;2022-07-24T07:07:34;100405.19;;;30.79
24740;BMP280;45234;48.148;17.128;2022-07-24T07:10:02;100402.53;;;30.91
24740;BMP280;45234;48.148;17.128;2022-07-24T07:12:29;100403.31;;;30.92
24740;BMP280;45234;48.148;17.128;2022-07-24T07:15:03;100402.06;;;30.57
24740;BMP280;45234;48.148;17.128;2022-07-24T07:17:30;100402.56;;;30.50
24740;BMP280;45234;48.148;17.128;2022-07-24T07:19:57;100392.91;;;30.37
24740;BMP280;45234;48.148;17.128;2022-07-24T07:22:24;100399.53;;;30.10
24740;BMP280;45234;48.148;17.128;2022-07-24T07:24:52;100396.91;;;30.31
24740;BMP280;45234;48.148;17.128;2022-07-24T07:27:18;100387.13;;;30.76
24740;BMP280;45234;48.148;17.128;2022-07-24T07:29:46;100395.19;;;31.21
24740;BMP280;45234;48.148;17.128;2022-07-24T07:32:13;100394.63;;;31.28
24740;BMP280;45234;48.148;17.128;2022-07-24T07:34:40;100391.84;;;32.09
24740;BMP280;45234;48.148;17.128;2022-07-24T07:37:09;100390.81;;;32.81
24740;BMP280;45234;48.148;17.128;2022-07-24T07:39:36;100386.53;;;33.24
24740;BMP280;45234;48.148;17.128;2022-07-24T07:42:03;100390.09;;;33.44
24740;BMP280;45234;48.148;17.128;2022-07-24T07:44:31;100393.31;;;33.84
24740;BMP280;45234;48.148;17.128;2022-07-24T07:46:59;100400.06;;;33.93
24740;BMP280;45234;48.148;17.128;2022-07-24T07:49:26;100407.38;;;34.31
24740;BMP280;45234;48.148;17.128;2022-07-24T07:51:53;100393.06;;;34.08
24740;BMP280;45234;48.148;17.128;2022-07-24T07:54:20;100401.63;;;34.14
24740;BMP280;45234;48.148;17.128;2022-07-24T07:56:47;100406.66;;;34.54
24740;BMP280;45234;48.148;17.128;2022-07-24T07:59:15;100409.94;;;35.08
24740;BMP280;45234;48.148;17.128;2022-07-24T08:01:43;100406.25;;;35.42
24740;BMP280;45234;48.148;17.128;2022-07-24T08:04:10;100409.19;;;35.34
24740;BMP280;45234;48.148;17.128;2022-07-24T08:06:38;100400.34;;;34.46
24740;BMP280;45234;48.148;17.128;2022-07-24T08:09:05;100398.66;;;34.57
24740;BMP280;45234;48.148;17.128;2022-07-24T08:11:34;100404.69;;;34.73
24740;BMP280;45234;48.148;17.128;2022-07-24T08:14:01;100396.06;;;34.22
24740;BMP280;45234;48.148;17.128;2022-07-24T08:16:28;100407.03;;;33.79
24740;BMP280;45234;48.148;17.128;2022-07-24T08:18:55;100400.56;;;33.64
24740;BMP280;45234;48.148;17.128;2022-07-24T08:21:22;100405.91;;;32.86
24740;BMP280;45234;48.148;17.128;2022-07-24T08:23:50;100404.44;;;32.33
24740;BMP280;45234;48.148;17.128;2022-07-24T08:26:17;100400.84;;;32.69
24740;BMP280;45234;48.148;17.128;2022-07-24T08:29:09;100400.88;;;32.57
24740;BMP280;45234;48.148;17.128;2022-07-24T08:31:37;100393.75;;;32.21
24740;BMP280;45234;48.148;17.128;2022-07-24T08:34:04;100392.53;;;33.83
24740;BMP280;45234;48.148;17.128;2022-07-24T08:36:31;100400.22;;;34.20
24740;BMP280;45234;48.148;17.128;2022-07-24T08:38:58;100398.34;;;33.85
24740;BMP280;45234;48.148;17.128;2022-07-24T08:41:30;100399.19;;;33.55
24740;BMP280;45234;48.148;17.128;2022-07-24T08:44:03;100401.59;;;33.75
24740;BMP280;45234;48.148;17.128;2022-07-24T08:46:34;100395.22;;;33.83
24740;BMP280;45234;48.148;17.128;2022-07-24T08:49:11;100393.50;;;33.75
24740;BMP280;45234;48.148;17.128;2022-07-24T08:51:40;100393.63;;;33.98
24740;BMP280;45234;48.148;17.128;2022-07-24T08:54:08;100403.75;;;34.05
24740;BMP280;45234;48.148;17.128;2022-07-24T08:56:40;100403.53;;;33.94
24740;BMP280;45234;48.148;17.128;2022-07-24T08:59:19;100410.16;;;33.81
24740;BMP280;45234;48.148;17.128;2022-07-24T09:01:52;100406.88;;;33.72
24740;BMP280;45234;48.148;17.128;2022-07-24T09:04:40;100410.94;;;33.81
24740;BMP280;45234;48.148;17.128;2022-07-24T09:07:10;100396.41;;;33.86
24740;BMP280;45234;48.148;17.128;2022-07-24T09:09:41;100395.63;;;33.19
24740;BMP280;45234;48.148;17.128;2022-07-24T09:12:15;100399.25;;;32.52
24740;BMP280;45234;48.148;17.128;2022-07-24T09:14:45;100395.38;;;32.25
24740;BMP280;45234;48.148;17.128;2022-07-24T09:17:19;100400.44;;;32.15
24740;BMP280;45234;48.148;17.128;2022-07-24T09:19:51;100397.69;;;32.39
24740;BMP280;45234;48.148;17.128;2022-07-24T09:27:37;100403.16;;;33.45
24740;BMP280;45234;48.148;17.128;2022-07-24T09:30:07;100398.41;;;33.07
24740;BMP280;45234;48.148;17.128;2022-07-24T09:32:38;100400.13;;;32.84
24740;BMP280;45234;48.148;17.128;2022-07-24T09:35:06;100402.34;;;32.82
24740;BMP280;45234;48.148;17.128;2022-07-24T09:37:34;100398.88;;;32.81
24740;BMP280;45234;48.148;17.128;2022-07-24T09:40:09;100393.63;;;33.01
24740;BMP280;45234;48.148;17.128;2022-07-24T09:42:37;100402.53;;;33.05
24740;BMP280;45234;48.148;17.128;2022-07-24T09:45:07;100407.31;;;32.68
24740;BMP280;45234;48.148;17.128;2022-07-24T09:47:35;100394.84;;;32.32
24740;BMP280;45234;48.148;17.128;2022-07-24T09:50:14;100401.66;;;32.29
24740;BMP280;45234;48.148;17.128;2022-07-24T09:52:42;100406.34;;;32.60
24740;BMP280;45234;48.148;17.128;2022-07-24T09:55:21;100397.28;;;32.65
24740;BMP280;45234;48.148;17.128;2022-07-24T09:57:49;100395.00;;;32.39
24740;BMP280;45234;48.148;17.128;2022-07-24T10:00:17;100388.59;;;32.56
24740;BMP280;45234;48.148;17.128;2022-07-24T10:02:46;100395.81;;;32.83
24740;BMP280;45234;48.148;17.128;2022-07-24T10:05:14;100387.06;;;32.70
24740;BMP280;45234;48.148;17.128;2022-07-24T10:07:51;100386.44;;;32.61
24740;BMP280;45234;48.148;17.128;2022-07-24T10:10:20;100385.50;;;32.54
24740;BMP280;45234;48.148;17.128;2022-07-24T10:12:48;100386.63;;;32.68
24740;BMP280;45234;48.148;17.128;2022-07-24T10:15:15;100376.09;;;32.75
24740;BMP280;45234;48.148;17.128;2022-07-24T10:20:38;100375.59;;;32.30
24740;BMP280;45234;48.148;17.128;2022-07-24T10:23:22;100378.13;;;32.38
24740;BMP280;45234;48.148;17.128;2022-07-24T10:26:03;100380.00;;;32.50
24740;BMP280;45234;48.148;17.128;2022-07-24T10:28:41;100376.81;;;31.80
24740;BMP280;45234;48.148;17.128;2022-07-24T10:31:11;100365.88;;;31.73
24740;BMP280;45234;48.148;17.128;2022-07-24T10:33:41;100361.84;;;31.79
24740;BMP280;45234;48.148;17.128;2022-07-24T10:36:20;100367.63;;;31.94
24740;BMP280;45234;48.148;17.128;2022-07-24T10:39:09;100371.66;;;32.00
24740;BMP280;45234;48.148;17.128;2022-07-24T10:41:38;100367.75;;;31.73
24740;BMP280;45234;48.148;17.128;2022-07-24T10:44:16;100369.53;;;31.32
24740;BMP280;45234;48.148;17.128;2022-07-24T10:49:48;100359.53;;;30.43
24740;BMP280;45234;48.148;17.128;2022-07-24T10:52:30;100364.25;;;30.17
24740;BMP280;45234;48.148;17.128;2022-07-24T10:58:03;100360.13;;;30.19
24740;BMP280;45234;48.148;17.128;2022-07-24T11:00:36;100353.94;;;30.27
24740;BMP280;45234;48.148;17.128;2022-07-24T11:03:24;100345.41;;;30.13
24740;BMP280;45234;48.148;17.128;2022-07-24T11:06:08;100341.75;;;30.18
24740;BMP280;45234;48.148;17.128;2022-07-24T11:09:01;100351.94;;;30.45
24740;BMP280;45234;48.148;17.128;2022-07-24T11:11:30;100346.91;;;30.64
24740;BMP280;45234;48.148;17.128;2022-07-24T11:13:59;100346.19;;;30.55
24740;BMP280;45234;48.148;17.128;2022-07-24T11:16:32;100352.53;;;30.51
24740;BMP280;45234;48.148;17.128;2022-07-24T11:21:45;100351.31;;;30.19
24740;BMP280;45234;48.148;17.128;2022-07-24T11:24:17;100349.38;;;30.28
24740;BMP280;45234;48.148;17.128;2022-07-24T11:26:54;100347.47;;;30.08
24740;BMP280;45234;48.148;17.128;2022-07-24T11:29:29;100346.31;;;30.17
24740;BMP280;45234;48.148;17.128;2022-07-24T11:32:11;100332.63;;;30.19
24740;BMP280;45234;48.148;17.128;2022-07-24T11:34:48;100334.34;;;30.23
24740;BMP280;45234;48.148;17.128;2022-07-24T11:37:18;100333.78;;;30.30
24740;BMP280;45234;48.148;17.128;2022-07-24T11:39:47;100332.91;;;30.26
24740;BMP280;45234;48.148;17.128;2022-07-24T11:42:15;100326.25;;;30.32
24740;BMP280;45234;48.148;17.128;2022-07-24T11:44:48;100322.47;;;30.33
24740;BMP280;45234;48.148;17.128;2022-07-24T11:47:19;100322.53;;;30.04
24740;BMP280;45234;48.148;17.128;2022-07-24T11:49:51;100331.31;;;30.25
24740;BMP280;45234;48.148;17.128;2022-07-24T11:54:49;100318.00;;;30.16
24740;BMP280;45234;48.148;17.128;2022-07-24T11:57:24;100324.53;;;30.27
24740;BMP280;45234;48.148;17.128;2022-07-24T12:00:17;100300.53;;;30.19
24740;BMP280;45234;48.148;17.128;2022-07-24T12:02:50;100308.38;;;30.24
24740;BMP280;45234;48.148;17.128;2022-07-24T12:05:30;100310.44;;;30.18
24740;BMP280;45234;48.148;17.128;2022-07-24T12:07:59;100297.28;;;30.34
24740;BMP280;45234;48.148;17.128;2022-07-24T12:10:27;100293.88;;;30.25
24740;BMP280;45234;48.148;17.128;2022-07-24T12:12:56;100291.66;;;30.27
24740;BMP280;45234;48.148;17.128;2022-07-24T12:15:25;100289.25;;;30.34
24740;BMP280;45234;48.148;17.128;2022-07-24T12:17:59;100283.97;;;30.46
24740;BMP280;45234;48.148;17.128;2022-07-24T12:20:36;100288.66;;;30.49
24740;BMP280;45234;48.148;17.128;2022-07-24T12:23:24;100289.38;;;30.37
24740;BMP280;45234;48.148;17.128;2022-07-24T12:25:52;100288.78;;;30.53
24740;BMP280;45234;48.148;17.128;2022-07-24T12:28:19;100293.47;;;30.56
24740;BMP280;45234;48.148;17.128;2022-07-24T12:30:48;100294.97;;;30.65
24740;BMP280;45234;48.148;17.128;2022-07-24T12:35:56;100281.34;;;30.37
24740;BMP280;45234;48.148;17.128;2022-07-24T12:38:30;100289.50;;;30.41
24740;BMP280;45234;48.148;17.128;2022-07-24T12:41:06;100276.78;;;30.38
24740;BMP280;45234;48.148;17.128;2022-07-24T12:43:48;100277.84;;;30.25
24740;BMP280;45234;48.148;17.128;2022-07-24T12:46:17;100285.91;;;30.37
24740;BMP280;45234;48.148;17.128;2022-07-24T12:49:17;100278.75;;;30.29
24740;BMP280;45234;48.148;17.128;2022-07-24T12:51:47;100280.81;;;30.44
24740;BMP280;45234;48.148;17.128;2022-07-24T12:54:20;100287.63;;;30.41
24740;BMP280;45234;48.148;17.128;2022-07-24T12:56:50;100273.94;;;30.43
24740;BMP280;45234;48.148;17.128;2022-07-24T13:02:04;100270.50;;;30.55
24740;BMP280;45234;48.148;17.128;2022-07-24T13:04:33;100265.38;;;30.62
24740;BMP280;45234;48.148;17.128;2022-07-24T13:07:09;100280.28;;;30.51
24740;BMP280;45234;48.148;17.128;2022-07-24T13:09:37;100270.25;;;30.48
24740;BMP280;45234;48.148;17.128;2022-07-24T13:12:05;100276.81;;;30.50
24740;BMP280;45234;48.148;17.128;2022-07-24T13:14:35;100258.59;;;30.64
24740;BMP280;45234;48.148;17.128;2022-07-24T13:17:11;100252.25;;;30.36
24740;BMP280;45234;48.148;17.128;2022-07-24T13:19:40;100249.84;;;30.43
24740;BMP280;45234;48.148;17.128;2022-07-24T13:22:07;100240.50;;;30.49
24740;BMP280;45234;48.148;17.128;2022-07-24T13:24:35;100247.53;;;30.54
24740;BMP280;45234;48.148;17.128;2022-07-24T13:27:05;100234.72;;;30.59
24740;BMP280;45234;48.148;17.128;2022-07-24T13:29:33;100233.72;;;30.64
24740;BMP280;45234;48.148;17.128;2022-07-24T13:32:04;100239.53;;;30.66
24740;BMP280;45234;48.148;17.128;2022-07-24T13:34:32;100236.63;;;30.71
24740;BMP280;45234;48.148;17.128;2022-07-24T13:37:03;100242.56;;;30.76
24740;BMP280;45234;48.148;17.128;2022-07-24T13:39:34;100249.16;;;30.79
24740;BMP280;45234;48.148;17.128;2022-07-24T13:42:04;100236.00;;;30.74
24740;BMP280;45234;48.148;17.128;2022-07-24T13:44:31;100239.13;;;30.76
24740;BMP280;45234;48.148;17.128;2022-07-24T13:46:58;100238.34;;;30.75
24740;BMP280;45234;48.148;17.128;2022-07-24T13:49:26;100239.56;;;30.78
24740;BMP280;45234;48.148;17.128;2022-07-24T13:51:53;100234.44;;;30.73
24740;BMP280;45234;48.148;17.128;2022-07-24T13:54:21;100234.09;;;30.74
24740;BMP280;45234;48.148;17.128;2022-07-24T13:56:48;100227.75;;;30.79
24740;BMP280;45234;48.148;17.128;2022-07-24T13:59:15;100223.06;;;30.76
24740;BMP280;45234;48.148;17.128;2022-07-24T14:01:42;100229.88;;;30.85
24740;BMP280;45234;48.148;17.128;2022-07-24T14:04:10;100231.63;;;30.81
24740;BMP280;45234;48.148;17.128;2022-07-24T14:06:56;100226.09;;;30.74
24740;BMP280;45234;48.148;17.128;2022-07-24T14:09:24;100220.47;;;30.67
24740;BMP280;45234;48.148;17.128;2022-07-24T14:11:51;100218.03;;;30.62
24740;BMP280;45234;48.148;17.128;2022-07-24T14:14:19;100220.72;;;30.74
24740;BMP280;45234;48.148;17.128;2022-07-24T14:16:47;100224.63;;;30.77
24740;BMP280;45234;48.148;17.128;2022-07-24T14:19:14;100214.44;;;30.70
24740;BMP280;45234;48.148;17.128;2022-07-24T14:21:41;100213.53;;;30.66